Time;durP1;ratioP1;P1;durP2;ratioP2;P2;SDS_P1;SDS_P2;PMS_P1;PMS_P2;Temp;Humidity;BMP_temperature;BMP_pressure;BME280_temperature;BME280_humidity;BME280_pressure;Samples;Min_cycle;Max_cycle;Signal;HPM_P1;HPM_P2
2023/12/20 00:01:25;;;;;;;11.90;2.50;;;9.80;81.30;;;;;;5055292;28;20462;-66
2023/12/20 00:03:51;;;;;;;7.50;1.92;;;9.80;81.40;;;;;;5054893;28;20029;-66
2023/12/20 00:06:17;;;;;;;7.22;1.92;;;9.80;81.30;;;;;;5053748;28;20159;-66
2023/12/20 00:08:44;;;;;;;9.13;1.80;;;9.80;81.30;;;;;;5052981;28;20357;-66
2023/12/20 00:11:09;;;;;;;8.65;2.55;;;9.80;81.30;;;;;;5052781;28;20061;-66
2023/12/20 00:13:35;;;;;;;8.07;1.77;;;9.80;81.30;;;;;;5054463;28;20105;-65
2023/12/20 00:16:01;;;;;;;9.68;2.03;;;9.80;81.30;;;;;;5052851;28;20469;-66
2023/12/20 00:18:27;;;;;;;8.05;1.83;;;9.80;81.20;;;;;;5053122;28;20024;-66
2023/12/20 00:20:52;;;;;;;5.43;1.80;;;9.80;81.20;;;;;;5051996;28;20527;-65
2023/12/20 00:23:18;;;;;;;7.45;2.15;;;9.80;81.10;;;;;;5051980;28;20035;-66
2023/12/20 00:25:44;;;;;;;7.18;2.00;;;9.80;81.10;;;;;;5052627;28;20091;-66
2023/12/20 00:28:10;;;;;;;8.07;2.35;;;9.70;81.00;;;;;;5054715;28;20040;-66
2023/12/20 00:30:36;;;;;;;6.80;2.28;;;9.70;81.00;;;;;;5052397;28;20138;-66
2023/12/20 00:33:02;;;;;;;10.02;2.10;;;9.70;81.10;;;;;;5036114;28;20108;-66
2023/12/20 00:35:28;;;;;;;8.82;2.13;;;9.70;81.00;;;;;;5050470;28;20040;-66
2023/12/20 00:37:53;;;;;;;10.02;2.65;;;9.70;81.00;;;;;;5054951;28;20020;-66
2023/12/20 00:40:20;;;;;;;8.13;2.58;;;9.80;81.00;;;;;;5051482;28;20095;-66
2023/12/20 00:42:46;;;;;;;7.95;2.63;;;9.70;80.90;;;;;;5053936;28;20032;-66
2023/12/20 00:45:12;;;;;;;9.82;2.10;;;9.70;80.90;;;;;;5052953;28;20041;-66
2023/12/20 00:47:38;;;;;;;11.43;2.42;;;9.70;80.80;;;;;;5053561;28;20354;-66
2023/12/20 00:50:05;;;;;;;9.07;2.85;;;9.70;80.80;;;;;;5052421;28;20051;-66
2023/12/20 00:52:30;;;;;;;11.02;2.88;;;9.70;80.80;;;;;;5051418;28;20063;-66
2023/12/20 00:54:56;;;;;;;11.35;2.58;;;9.70;80.80;;;;;;5051706;28;20453;-66
2023/12/20 00:57:22;;;;;;;10.15;2.63;;;9.70;80.70;;;;;;5053860;28;20454;-66
2023/12/20 00:59:48;;;;;;;9.18;2.60;;;9.60;80.60;;;;;;5052671;28;20104;-66
2023/12/20 01:02:13;;;;;;;10.32;2.83;;;9.60;80.70;;;;;;5036434;28;20090;-66
2023/12/20 01:04:39;;;;;;;9.38;2.33;;;9.60;80.70;;;;;;5051178;28;20411;-66
2023/12/20 01:07:05;;;;;;;7.13;2.28;;;9.60;80.60;;;;;;5052694;28;20075;-66
2023/12/20 01:09:31;;;;;;;9.10;2.58;;;9.60;80.60;;;;;;5050013;28;20021;-66
2023/12/20 01:11:56;;;;;;;7.50;2.45;;;9.50;80.60;;;;;;5053279;28;20036;-66
2023/12/20 01:14:22;;;;;;;12.13;2.42;;;9.50;80.70;;;;;;5052456;28;20028;-66
2023/12/20 01:16:48;;;;;;;9.38;2.80;;;9.50;80.70;;;;;;5030261;28;20040;-66
2023/12/20 01:19:14;;;;;;;10.85;3.47;;;9.50;80.70;;;;;;5053053;28;20143;-66
2023/12/20 01:21:40;;;;;;;10.82;2.50;;;9.50;80.70;;;;;;5050441;28;20036;-65
2023/12/20 01:24:06;;;;;;;10.65;2.88;;;9.50;80.60;;;;;;5056253;28;20033;-66
2023/12/20 01:26:32;;;;;;;11.98;3.28;;;9.40;80.60;;;;;;5054044;28;20043;-66
2023/12/20 01:28:58;;;;;;;8.43;2.08;;;9.40;80.50;;;;;;5055923;28;20347;-66
2023/12/20 01:31:23;;;;;;;9.55;2.42;;;9.40;80.50;;;;;;5054544;28;20033;-66
2023/12/20 01:33:49;;;;;;;6.57;2.47;;;9.40;80.50;;;;;;5055309;28;20048;-66
2023/12/20 01:36:15;;;;;;;7.82;2.50;;;9.40;80.40;;;;;;5058176;28;20037;-66
2023/12/20 01:38:41;;;;;;;11.75;3.33;;;9.40;80.40;;;;;;5058410;28;20029;-66
2023/12/20 01:41:06;;;;;;;8.10;2.17;;;9.40;80.40;;;;;;5058618;28;20024;-66
2023/12/20 01:43:32;;;;;;;7.72;2.35;;;9.40;80.40;;;;;;5058302;28;20525;-66
2023/12/20 01:45:58;;;;;;;7.10;2.58;;;9.40;80.40;;;;;;5047896;28;20456;-66
2023/12/20 01:48:28;;;;;;;11.85;2.42;;;9.40;80.40;;;;;;5058487;28;20064;-66
2023/12/20 01:50:54;;;;;;;8.75;2.67;;;9.40;80.30;;;;;;5056104;28;20060;-66
2023/12/20 01:53:24;;;;;;;11.43;2.60;;;9.40;80.30;;;;;;5059371;28;20155;-66
2023/12/20 01:55:52;;;;;;;11.98;3.13;;;9.30;80.20;;;;;;5059411;28;20033;-66
2023/12/20 01:58:19;;;;;;;7.55;2.08;;;9.30;80.20;;;;;;5058548;28;20082;-66
2023/12/20 02:00:44;;;;;;;11.77;2.50;;;9.30;80.20;;;;;;5056505;28;20029;-66
2023/12/20 02:03:11;;;;;;;10.70;2.83;;;9.30;80.10;;;;;;5057785;28;21272;-66
2023/12/20 02:05:38;;;;;;;9.10;1.80;;;9.30;80.00;;;;;;5052171;28;20028;-67
2023/12/20 02:08:05;;;;;;;8.20;2.30;;;9.30;80.00;;;;;;5055907;28;20032;-65
2023/12/20 02:10:31;;;;;;;9.00;2.47;;;9.30;79.90;;;;;;5055810;28;20045;-66
2023/12/20 02:12:57;;;;;;;9.73;1.95;;;9.30;79.80;;;;;;5041625;28;20044;-66
2023/12/20 02:15:23;;;;;;;10.85;2.63;;;9.30;79.90;;;;;;5043901;28;20052;-65
2023/12/20 02:17:49;;;;;;;10.15;2.38;;;9.30;79.90;;;;;;5058363;28;20087;-66
2023/12/20 02:20:15;;;;;;;7.20;2.15;;;9.30;79.90;;;;;;5057868;28;20037;-65
2023/12/20 02:22:41;;;;;;;6.13;1.75;;;9.30;79.90;;;;;;5058307;28;20151;-66
2023/12/20 02:25:07;;;;;;;9.57;3.03;;;9.30;79.90;;;;;;5058088;28;20028;-66
2023/12/20 02:27:34;;;;;;;9.27;2.17;;;9.30;79.90;;;;;;5059746;28;20029;-66
2023/12/20 02:30:00;;;;;;;11.73;2.65;;;9.30;79.90;;;;;;5059371;28;20025;-66
2023/12/20 02:32:26;;;;;;;9.60;2.20;;;9.30;79.90;;;;;;5058136;28;20124;-66
2023/12/20 02:34:52;;;;;;;11.75;2.17;;;9.30;79.90;;;;;;5058431;28;20094;-65
2023/12/20 02:37:17;;;;;;;11.70;2.60;;;9.30;79.80;;;;;;5057863;28;20021;-66
2023/12/20 02:39:43;;;;;;;10.32;2.63;;;9.30;79.80;;;;;;5059599;28;20492;-65
2023/12/20 02:42:09;;;;;;;12.32;2.60;;;9.30;79.80;;;;;;5056836;28;20032;-66
2023/12/20 02:44:36;;;;;;;10.57;3.22;;;9.30;79.80;;;;;;5057133;28;20049;-66
2023/12/20 02:47:02;;;;;;;12.15;2.67;;;9.30;79.80;;;;;;5054543;28;20037;-66
2023/12/20 02:49:28;;;;;;;8.13;2.40;;;9.30;79.80;;;;;;5055947;28;20036;-66
2023/12/20 02:51:53;;;;;;;10.68;2.33;;;9.30;79.70;;;;;;5055620;28;20025;-66
2023/12/20 02:54:19;;;;;;;8.07;2.08;;;9.40;79.70;;;;;;5055711;28;20032;-66
2023/12/20 02:56:45;;;;;;;11.23;2.38;;;9.40;79.70;;;;;;5054275;28;20029;-66
2023/12/20 02:59:11;;;;;;;10.48;2.58;;;9.40;79.70;;;;;;5037962;28;20036;-66
2023/12/20 03:01:43;;;;;;;8.68;2.00;;;9.40;79.70;;;;;;5054859;28;20097;-66
2023/12/20 03:04:09;;;;;;;9.93;2.38;;;9.40;79.70;;;;;;5056082;28;20029;-66
2023/12/20 03:06:34;;;;;;;10.93;2.38;;;9.40;79.70;;;;;;5054980;28;20099;-65
2023/12/20 03:09:00;;;;;;;9.65;2.47;;;9.40;79.80;;;;;;5055289;28;20032;-65
2023/12/20 03:11:29;;;;;;;12.23;2.67;;;9.40;79.80;;;;;;5055505;28;20017;-66
2023/12/20 03:13:55;;;;;;;12.50;2.10;;;9.40;79.80;;;;;;5055946;28;20097;-66
2023/12/20 03:16:21;;;;;;;11.00;3.08;;;9.40;79.80;;;;;;5054506;28;20338;-66
2023/12/20 03:18:47;;;;;;;12.73;2.65;;;9.40;79.80;;;;;;5054897;28;20032;-65
2023/12/20 03:21:13;;;;;;;8.85;2.03;;;9.40;79.80;;;;;;5053132;28;20025;-66
2023/12/20 03:23:38;;;;;;;12.20;2.53;;;9.40;79.70;;;;;;5055567;28;20029;-65
2023/12/20 03:26:07;;;;;;;10.73;2.58;;;9.40;79.70;;;;;;5055261;28;20025;-66
2023/12/20 03:28:33;;;;;;;8.07;2.30;;;9.40;79.70;;;;;;5055727;28;20021;-65
2023/12/20 03:30:59;;;;;;;10.85;2.40;;;9.40;79.70;;;;;;5055372;28;20029;-65
2023/12/20 03:33:25;;;;;;;11.43;2.67;;;9.40;79.70;;;;;;5054728;28;20028;-66
2023/12/20 03:35:51;;;;;;;13.85;3.15;;;9.40;79.70;;;;;;5037408;28;20143;-65
2023/12/20 03:38:17;;;;;;;13.85;2.67;;;9.30;79.60;;;;;;5054427;28;20036;-66
2023/12/20 03:40:42;;;;;;;10.60;2.33;;;9.30;79.70;;;;;;5055772;28;20057;-65
2023/12/20 03:43:08;;;;;;;9.82;2.38;;;9.30;79.70;;;;;;5052802;28;20027;-66
2023/12/20 03:45:34;;;;;;;14.13;3.30;;;9.30;79.70;;;;;;5036038;28;20409;-66
2023/12/20 03:48:00;;;;;;;14.00;3.10;;;9.30;79.80;;;;;;5052452;28;20052;-66
2023/12/20 03:50:26;;;;;;;11.07;2.95;;;9.30;79.80;;;;;;5053747;28;20052;-66
2023/12/20 03:52:52;;;;;;;17.20;2.95;;;9.30;79.80;;;;;;5052099;28;20119;-66
2023/12/20 03:55:18;;;;;;;12.05;2.42;;;9.30;79.80;;;;;;5052391;28;20090;-65
2023/12/20 03:57:44;;;;;;;10.10;2.70;;;9.30;79.80;;;;;;5053516;28;20376;-66
2023/12/20 04:00:11;;;;;;;13.55;3.20;;;9.30;79.80;;;;;;5054615;28;20025;-66
2023/12/20 04:02:40;;;;;;;11.70;3.05;;;9.30;79.70;;;;;;5052540;28;20039;-65
2023/12/20 04:05:07;;;;;;;7.90;2.33;;;9.30;79.80;;;;;;5053548;28;20488;-65
2023/12/20 04:07:34;;;;;;;8.48;2.50;;;9.20;79.70;;;;;;5054173;28;20024;-66
2023/12/20 04:10:00;;;;;;;11.57;3.20;;;9.20;79.70;;;;;;5054090;28;20025;-66
2023/12/20 04:12:29;;;;;;;10.32;3.08;;;9.20;79.70;;;;;;5055438;28;20346;-66
2023/12/20 04:14:56;;;;;;;11.35;3.30;;;9.20;79.60;;;;;;5053174;28;20108;-66
2023/12/20 04:17:22;;;;;;;10.05;2.40;;;9.20;79.70;;;;;;5052984;28;20044;-65
2023/12/20 04:19:51;;;;;;;12.82;3.72;;;9.20;79.70;;;;;;5053294;28;20029;-65
2023/12/20 04:22:18;;;;;;;11.45;3.53;;;9.30;79.70;;;;;;5054354;28;20039;-66
2023/12/20 04:24:44;;;;;;;13.30;3.40;;;9.30;79.60;;;;;;5052013;28;20107;-65
2023/12/20 04:27:10;;;;;;;14.32;2.47;;;9.20;79.60;;;;;;5052703;28;20452;-66
2023/12/20 04:29:36;;;;;;;17.63;2.80;;;9.20;79.60;;;;;;5052647;28;20025;-65
2023/12/20 04:32:02;;;;;;;8.80;2.45;;;9.30;79.60;;;;;;5053647;28;20079;-66
2023/12/20 04:34:28;;;;;;;9.95;2.85;;;9.30;79.70;;;;;;5050015;28;20389;-65
2023/12/20 04:36:54;;;;;;;12.38;2.70;;;9.30;79.60;;;;;;5053673;28;20020;-66
2023/12/20 04:39:20;;;;;;;14.77;3.85;;;9.30;79.60;;;;;;5052142;28;20354;-65
2023/12/20 04:41:47;;;;;;;14.70;2.92;;;9.30;79.60;;;;;;5052967;28;20037;-66
2023/12/20 04:44:13;;;;;;;14.73;2.47;;;9.30;79.60;;;;;;5052240;28;20036;-66
2023/12/20 04:46:39;;;;;;;10.48;2.63;;;9.30;79.60;;;;;;5052077;28;20025;-65
2023/12/20 04:49:05;;;;;;;10.60;3.08;;;9.30;79.60;;;;;;5052233;28;20074;-65
2023/12/20 04:51:33;;;;;;;9.93;3.15;;;9.30;79.60;;;;;;5053548;28;20029;-66
2023/12/20 04:53:59;;;;;;;11.93;3.00;;;9.30;79.60;;;;;;5054182;28;20110;-66
2023/12/20 04:56:25;;;;;;;14.90;3.63;;;9.40;79.70;;;;;;5051875;28;20071;-65
2023/12/20 04:58:51;;;;;;;14.05;3.70;;;9.40;79.70;;;;;;5054043;28;20021;-65
2023/12/20 05:01:17;;;;;;;14.30;2.80;;;9.30;79.50;;;;;;5053823;28;20445;-66
2023/12/20 05:03:42;;;;;;;14.32;3.30;;;9.30;79.50;;;;;;5053589;28;20025;-66
2023/12/20 05:06:09;;;;;;;14.05;2.80;;;9.40;79.60;;;;;;5052096;28;20113;-66
2023/12/20 05:08:34;;;;;;;10.05;2.90;;;9.40;79.50;;;;;;5052455;28;20111;-65
2023/12/20 05:11:00;;;;;;;14.48;2.42;;;9.40;79.60;;;;;;5052685;28;20104;-66
2023/12/20 05:13:26;;;;;;;16.65;3.33;;;9.40;79.60;;;;;;5053745;28;20461;-66
2023/12/20 05:15:52;;;;;;;7.60;2.13;;;9.40;79.60;;;;;;5050188;28;20028;-66
2023/12/20 05:18:17;;;;;;;13.38;3.17;;;9.40;79.60;;;;;;5052212;28;20032;-66
2023/12/20 05:20:43;;;;;;;10.55;2.78;;;9.40;79.50;;;;;;5052440;28;20468;-66
2023/12/20 05:23:09;;;;;;;13.82;3.28;;;9.50;79.50;;;;;;5052189;28;20029;-66
2023/12/20 05:25:35;;;;;;;12.45;2.70;;;9.50;79.60;;;;;;5052884;28;20024;-66
2023/12/20 05:28:00;;;;;;;14.15;2.30;;;9.50;79.60;;;;;;5034353;28;20102;-66
2023/12/20 05:30:26;;;;;;;12.82;2.78;;;9.50;79.60;;;;;;5053341;28;20108;-66
2023/12/20 05:32:52;;;;;;;17.05;3.83;;;9.50;79.50;;;;;;5052958;28;20416;-65
2023/12/20 05:35:19;;;;;;;10.25;2.92;;;9.50;79.50;;;;;;5051696;28;20133;-66
2023/12/20 05:37:44;;;;;;;15.85;3.10;;;9.50;79.50;;;;;;5049221;28;20029;-65
2023/12/20 05:40:10;;;;;;;12.85;2.28;;;9.50;79.40;;;;;;5030282;28;20392;-65
2023/12/20 05:42:37;;;;;;;12.73;2.35;;;9.60;79.30;;;;;;5050027;28;20094;-66
2023/12/20 05:45:04;;;;;;;11.20;3.15;;;9.60;79.30;;;;;;5052833;28;20056;-65
2023/12/20 05:47:30;;;;;;;12.15;2.85;;;9.60;79.30;;;;;;5052692;28;20017;-65
2023/12/20 05:49:56;;;;;;;10.10;2.58;;;9.60;79.20;;;;;;5053055;28;20291;-66
2023/12/20 05:52:21;;;;;;;12.73;2.55;;;9.60;79.30;;;;;;5035614;28;20032;-66
2023/12/20 05:54:47;;;;;;;11.35;2.47;;;9.60;79.30;;;;;;5051549;28;20024;-66
2023/12/20 05:57:13;;;;;;;11.55;2.70;;;9.60;79.30;;;;;;5034435;28;20029;-66
2023/12/20 05:59:39;;;;;;;8.70;3.05;;;9.60;79.30;;;;;;5050742;28;20021;-66
2023/12/20 06:02:05;;;;;;;9.85;2.80;;;9.60;79.30;;;;;;5053420;28;20349;-67
2023/12/20 06:04:31;;;;;;;10.10;3.25;;;9.60;79.30;;;;;;5051112;28;20025;-67
2023/12/20 06:06:57;;;;;;;9.82;2.40;;;9.60;79.30;;;;;;5053621;28;20028;-67
2023/12/20 06:09:23;;;;;;;12.40;2.22;;;9.60;79.30;;;;;;5052786;28;20029;-66
2023/12/20 06:11:49;;;;;;;10.02;3.70;;;9.70;79.20;;;;;;5052055;28;20071;-66
2023/12/20 06:14:15;;;;;;;12.20;2.65;;;9.70;79.20;;;;;;5052593;28;20335;-69
2023/12/20 06:16:40;;;;;;;13.98;3.63;;;9.70;79.20;;;;;;5050391;28;20029;-65
2023/12/20 06:19:06;;;;;;;11.00;2.22;;;9.70;79.20;;;;;;5053809;28;20025;-66
2023/12/20 06:21:32;;;;;;;12.20;2.60;;;9.70;79.10;;;;;;5055308;28;20413;-65
2023/12/20 06:23:59;;;;;;;14.07;3.53;;;9.70;79.10;;;;;;5056729;28;20303;-65
2023/12/20 06:26:25;;;;;;;13.70;2.75;;;9.70;79.10;;;;;;5055735;28;20033;-65
2023/12/20 06:28:50;;;;;;;14.68;3.13;;;9.70;79.10;;;;;;5055751;28;20033;-65
2023/12/20 06:31:16;;;;;;;12.88;2.70;;;9.70;79.10;;;;;;5055864;28;20049;-66
2023/12/20 06:33:43;;;;;;;11.48;3.17;;;9.70;79.00;;;;;;5055787;28;20021;-65
2023/12/20 06:36:13;;;;;;;9.73;2.90;;;9.70;79.00;;;;;;5036131;28;20046;-66
2023/12/20 06:38:39;;;;;;;11.45;2.47;;;9.70;79.00;;;;;;5053696;28;20017;-67
2023/12/20 06:41:05;;;;;;;16.42;3.85;;;9.70;79.00;;;;;;5055871;28;20043;-66
2023/12/20 06:43:32;;;;;;;9.90;3.17;;;9.70;78.90;;;;;;5056622;28;20043;-65
2023/12/20 06:45:58;;;;;;;13.00;3.38;;;9.70;78.90;;;;;;5056542;28;20024;-66
2023/12/20 06:48:24;;;;;;;12.00;2.92;;;9.70;78.90;;;;;;5056210;28;20064;-66
2023/12/20 06:50:49;;;;;;;10.93;2.10;;;9.70;78.80;;;;;;5054557;28;20113;-66
2023/12/20 06:53:15;;;;;;;18.58;3.97;;;9.70;78.80;;;;;;5056323;28;20104;-65
2023/12/20 06:55:42;;;;;;;15.13;3.10;;;9.70;78.80;;;;;;5055582;28;20024;-66
2023/12/20 06:58:08;;;;;;;11.13;2.58;;;9.70;78.80;;;;;;5056319;28;20401;-67
2023/12/20 07:00:34;;;;;;;12.68;2.70;;;9.70;78.70;;;;;;5052672;28;20036;-67
2023/12/20 07:03:00;;;;;;;10.60;2.63;;;9.80;78.70;;;;;;5056125;28;20035;-67
2023/12/20 07:05:26;;;;;;;11.52;3.42;;;9.80;78.60;;;;;;5055967;28;20070;-67
2023/12/20 07:07:52;;;;;;;16.40;2.78;;;9.80;78.60;;;;;;5053765;28;20033;-67
2023/12/20 07:10:18;;;;;;;10.23;2.60;;;9.80;78.50;;;;;;5047710;28;20051;-69
2023/12/20 07:12:44;;;;;;;13.32;3.10;;;9.80;78.40;;;;;;5055179;28;20017;-67
2023/12/20 07:15:10;;;;;;;15.25;2.85;;;9.90;78.50;;;;;;5053187;28;20443;-67
2023/12/20 07:17:36;;;;;;;11.35;3.17;;;9.90;78.40;;;;;;5051204;28;20103;-67
2023/12/20 07:20:06;;;;;;;15.93;3.75;;;9.90;78.40;;;;;;5051782;28;20041;-66
2023/12/20 07:22:33;;;;;;;12.68;2.78;;;9.90;78.40;;;;;;5055144;28;20120;-66
2023/12/20 07:24:59;;;;;;;10.95;2.78;;;9.90;78.30;;;;;;5053454;28;20086;-65
2023/12/20 07:27:25;;;;;;;9.20;2.55;;;9.90;78.20;;;;;;5055068;28;20444;-67
2023/12/20 07:29:51;;;;;;;12.80;2.72;;;9.80;78.20;;;;;;5056142;28;20021;-67
2023/12/20 07:32:17;;;;;;;14.75;2.63;;;9.80;78.20;;;;;;5060336;28;20040;-67
2023/12/20 07:34:43;;;;;;;16.35;3.78;;;9.80;78.20;;;;;;5061308;28;20103;-67
2023/12/20 07:37:11;;;;;;;10.15;2.50;;;9.80;78.20;;;;;;5065880;28;20049;-66
2023/12/20 07:39:40;;;;;;;10.52;3.13;;;9.90;78.90;;;;;;5059185;28;20091;-67
2023/12/20 07:42:06;;;;;;;14.00;2.63;;;9.90;78.30;;;;;;5055418;28;20033;-67
2023/12/20 07:44:31;;;;;;;12.38;3.28;;;9.80;78.30;;;;;;5062475;28;20074;-67
2023/12/20 07:46:57;;;;;;;11.68;2.22;;;9.80;78.90;;;;;;5057980;28;20020;-67
2023/12/20 07:49:23;;;;;;;15.88;2.88;;;9.80;78.30;;;;;;5058513;28;20116;-67
2023/12/20 07:51:49;;;;;;;14.10;2.83;;;9.80;78.20;;;;;;5058321;28;20056;-67
2023/12/20 07:54:16;;;;;;;9.65;2.85;;;9.80;78.20;;;;;;5062203;28;20401;-67
2023/12/20 07:56:42;;;;;;;13.18;3.42;;;9.80;78.10;;;;;;5055234;28;20039;-67
2023/12/20 07:59:07;;;;;;;13.35;3.50;;;9.80;78.10;;;;;;5054013;28;20112;-67
2023/12/20 08:01:33;;;;;;;9.57;3.08;;;9.80;78.10;;;;;;5055015;28;20393;-67
2023/12/20 08:03:59;;;;;;;17.38;3.83;;;9.80;78.10;;;;;;5054996;28;20116;-67
2023/12/20 08:06:25;;;;;;;11.77;2.88;;;9.80;78.10;;;;;;5056006;28;20032;-67
2023/12/20 08:08:50;;;;;;;11.80;3.15;;;9.80;78.10;;;;;;5055986;28;20063;-67
2023/12/20 08:11:17;;;;;;;11.93;2.83;;;9.80;78.10;;;;;;5054083;28;20040;-67
2023/12/20 08:13:43;;;;;;;12.00;2.92;;;9.90;78.20;;;;;;5037010;28;20064;-67
2023/12/20 08:16:09;;;;;;;11.50;2.45;;;9.90;78.20;;;;;;5054956;28;20064;-67
2023/12/20 08:18:34;;;;;;;12.88;2.28;;;9.80;78.10;;;;;;5055104;28;20063;-67
2023/12/20 08:21:01;;;;;;;11.52;2.25;;;9.90;78.20;;;;;;5053578;28;20028;-67
2023/12/20 08:23:27;;;;;;;11.55;2.83;;;9.90;78.20;;;;;;5054082;28;20094;-67
2023/12/20 08:25:53;;;;;;;10.40;2.60;;;9.90;78.20;;;;;;5055347;28;20365;-67
2023/12/20 08:28:18;;;;;;;14.88;2.88;;;9.90;78.10;;;;;;5037115;28;20037;-67
2023/12/20 08:30:45;;;;;;;13.40;2.92;;;9.90;78.10;;;;;;5041395;28;20418;-68
2023/12/20 08:33:12;;;;;;;15.38;3.00;;;9.90;78.00;;;;;;5057938;28;20028;-67
2023/12/20 08:35:41;;;;;;;11.23;2.70;;;9.90;78.00;;;;;;5075077;28;20052;-67
2023/12/20 08:38:07;;;;;;;15.10;2.97;;;9.90;78.00;;;;;;5066314;28;20453;-67
2023/12/20 08:40:33;;;;;;;14.48;3.10;;;9.90;78.00;;;;;;5074692;28;20039;-67
2023/12/20 08:42:59;;;;;;;13.00;3.58;;;9.90;78.00;;;;;;5063380;28;20115;-67
2023/12/20 08:45:24;;;;;;;8.77;2.45;;;9.90;78.00;;;;;;5074236;28;20082;-67
2023/12/20 08:47:50;;;;;;;10.50;3.15;;;9.90;78.00;;;;;;5061767;28;20043;-67
2023/12/20 08:50:16;;;;;;;15.68;2.80;;;9.90;78.00;;;;;;5073555;28;20036;-67
2023/12/20 08:52:42;;;;;;;13.60;2.65;;;9.90;78.00;;;;;;5066570;28;20032;-67
2023/12/20 08:55:09;;;;;;;12.85;3.22;;;9.90;78.10;;;;;;5054904;28;20055;-67
2023/12/20 08:57:35;;;;;;;14.73;3.75;;;9.90;78.10;;;;;;5053851;28;20033;-67
2023/12/20 09:00:01;;;;;;;11.63;3.35;;;9.90;78.40;;;;;;5054756;28;20493;-67
2023/12/20 09:02:27;;;;;;;11.95;3.25;;;10.00;78.20;;;;;;5054528;28;20086;-67
2023/12/20 09:04:52;;;;;;;12.40;3.53;;;10.00;78.20;;;;;;5053030;28;20033;-67
2023/12/20 09:07:25;;;;;;;13.85;2.90;;;10.00;78.20;;;;;;5054818;28;20035;-67
2023/12/20 09:09:52;;;;;;;13.10;3.15;;;9.90;78.20;;;;;;5036798;28;20029;-67
2023/12/20 09:12:21;;;;;;;15.07;3.25;;;10.00;78.20;;;;;;5052578;28;20032;-67
2023/12/20 09:14:48;;;;;;;12.98;2.90;;;9.90;78.20;;;;;;5053579;28;20363;-67
2023/12/20 09:17:14;;;;;;;14.48;4.05;;;9.90;78.40;;;;;;5067065;28;20422;-67
2023/12/20 09:19:40;;;;;;;14.65;3.35;;;9.90;78.40;;;;;;5063071;28;20043;-67
2023/12/20 09:22:06;;;;;;;13.68;2.72;;;9.90;78.50;;;;;;5053219;28;20116;-67
2023/12/20 09:24:32;;;;;;;8.93;2.67;;;9.90;78.60;;;;;;5061010;28;20032;-67
2023/12/20 09:26:57;;;;;;;14.07;2.60;;;9.90;78.70;;;;;;5037005;28;20457;-66
2023/12/20 09:29:24;;;;;;;10.73;2.92;;;9.90;78.90;;;;;;5052488;28;20450;-67
2023/12/20 09:31:50;;;;;;;14.32;3.10;;;9.90;78.90;;;;;;5059449;28;20028;-66
2023/12/20 09:34:19;;;;;;;11.23;2.50;;;9.90;79.00;;;;;;5053170;28;20025;-67
2023/12/20 09:36:46;;;;;;;12.95;2.45;;;9.90;79.10;;;;;;5067918;28;20098;-66
2023/12/20 09:39:20;;;;;;;11.30;3.38;;;9.90;79.20;;;;;;5060673;28;20120;-68
2023/12/20 09:42:09;;;;;;;13.38;3.03;;;9.90;79.30;;;;;;5059418;28;20400;-67
2023/12/20 09:44:35;;;;;;;14.20;3.15;;;9.90;79.40;;;;;;5055094;28;20036;-67
2023/12/20 09:47:03;;;;;;;13.30;2.92;;;9.90;79.40;;;;;;5060558;28;20051;-67
2023/12/20 09:49:30;;;;;;;10.40;2.75;;;9.90;79.50;;;;;;5053885;28;20025;-66
2023/12/20 09:51:56;;;;;;;11.13;2.70;;;9.90;79.60;;;;;;5059009;28;20021;-66
2023/12/20 09:54:23;;;;;;;12.98;3.50;;;9.90;79.80;;;;;;5053343;28;20025;-66
2023/12/20 09:56:49;;;;;;;15.43;2.70;;;9.90;79.80;;;;;;5057770;28;20097;-67
2023/12/20 09:59:14;;;;;;;13.65;3.05;;;9.90;79.90;;;;;;5056633;28;20400;-66
2023/12/20 10:01:41;;;;;;;15.52;3.20;;;9.90;80.00;;;;;;5056570;28;20029;-65
2023/12/20 10:04:12;;;;;;;13.93;3.17;;;9.90;80.00;;;;;;5056704;28;20072;-66
2023/12/20 10:06:41;;;;;;;15.82;3.33;;;9.90;80.00;;;;;;5058542;28;20040;-66
2023/12/20 10:09:08;;;;;;;12.75;3.15;;;10.00;80.00;;;;;;5057747;28;20471;-66
2023/12/20 10:11:38;;;;;;;14.60;3.65;;;9.90;80.00;;;;;;5057231;28;20037;-67
2023/12/20 10:14:05;;;;;;;10.18;2.95;;;9.90;80.10;;;;;;5056058;28;20036;-66
2023/12/20 10:16:32;;;;;;;13.73;2.75;;;9.90;80.10;;;;;;5064717;28;20025;-66
2023/12/20 10:18:58;;;;;;;10.73;2.60;;;10.00;80.30;;;;;;5052901;28;20029;-66
2023/12/20 10:21:28;;;;;;;10.48;2.75;;;9.90;80.20;;;;;;5065765;28;20063;-66
2023/12/20 10:23:55;;;;;;;14.52;3.00;;;10.00;80.30;;;;;;5058497;28;20032;-66
2023/12/20 10:26:27;;;;;;;12.38;3.15;;;10.00;80.30;;;;;;5059294;28;20029;-66
2023/12/20 10:28:55;;;;;;;14.80;3.00;;;10.00;80.40;;;;;;5057487;28;20384;-67
2023/12/20 10:31:27;;;;;;;13.88;2.53;;;10.00;80.40;;;;;;5056795;28;20033;-66
2023/12/20 10:33:53;;;;;;;13.90;3.60;;;10.00;80.50;;;;;;5057391;28;20449;-65
2023/12/20 10:36:19;;;;;;;11.30;2.55;;;10.00;80.50;;;;;;5061445;28;20094;-65
2023/12/20 10:38:48;;;;;;;11.85;3.05;;;10.10;80.50;;;;;;5059199;28;20357;-65
2023/12/20 10:41:17;;;;;;;9.90;2.40;;;10.10;80.40;;;;;;5053625;28;20024;-65
2023/12/20 10:43:43;;;;;;;11.27;2.47;;;10.10;80.40;;;;;;5056099;28;20030;-65
2023/12/20 10:46:09;;;;;;;15.80;3.88;;;10.20;80.40;;;;;;5058841;28;20040;-65
2023/12/20 10:48:35;;;;;;;14.02;3.35;;;10.10;80.40;;;;;;5040796;28;20361;-66
2023/12/20 10:51:01;;;;;;;13.13;3.17;;;10.10;80.40;;;;;;5056196;28;20026;-65
2023/12/20 10:53:27;;;;;;;13.07;3.08;;;10.10;80.40;;;;;;5054062;28;20036;-66
2023/12/20 10:55:56;;;;;;;9.27;3.38;;;10.10;80.50;;;;;;5056248;28;20434;-66
2023/12/20 10:58:24;;;;;;;10.68;2.42;;;10.10;80.60;;;;;;5055361;28;20033;-66
2023/12/20 11:00:56;;;;;;;13.90;2.60;;;10.10;80.60;;;;;;5056325;28;20162;-65
2023/12/20 11:03:24;;;;;;;12.90;3.13;;;10.10;80.70;;;;;;5054457;28;20461;-65
2023/12/20 11:06:02;;;;;;;11.88;3.00;;;10.10;80.80;;;;;;5055575;28;20083;-65
2023/12/20 11:08:51;;;;;;;13.70;3.20;;;10.10;80.90;;;;;;5054910;28;20063;-65
2023/12/20 11:11:34;;;;;;;11.50;2.63;;;10.10;80.80;;;;;;5054981;28;20059;-64
2023/12/20 11:14:02;;;;;;;15.60;2.97;;;10.10;80.80;;;;;;5054782;28;20488;-64
2023/12/20 11:16:28;;;;;;;11.88;3.45;;;10.10;80.80;;;;;;5055891;28;20029;-64
2023/12/20 11:18:54;;;;;;;11.80;2.90;;;10.10;80.70;;;;;;5054896;28;20084;-65
2023/12/20 11:21:20;;;;;;;11.95;2.83;;;10.10;80.80;;;;;;5054835;28;20057;-64
2023/12/20 11:23:46;;;;;;;13.52;2.80;;;10.10;80.80;;;;;;5052945;28;20029;-64
2023/12/20 11:26:16;;;;;;;11.90;3.45;;;10.10;80.90;;;;;;5051014;28;20078;-64
2023/12/20 11:28:42;;;;;;;13.70;3.65;;;10.10;80.90;;;;;;5050161;28;20026;-64
2023/12/20 11:31:10;;;;;;;16.42;3.33;;;10.10;80.90;;;;;;5053288;28;20056;-64
2023/12/20 11:33:37;;;;;;;13.13;3.35;;;10.10;80.90;;;;;;5049445;28;20025;-64
2023/12/20 11:36:12;;;;;;;12.40;3.30;;;10.10;80.90;;;;;;5034078;28;20542;-64
2023/12/20 11:38:38;;;;;;;11.43;2.95;;;10.20;81.00;;;;;;5052528;28;20353;-65
2023/12/20 11:41:06;;;;;;;8.45;2.15;;;10.20;80.90;;;;;;5053870;28;20032;-65
2023/12/20 11:43:39;;;;;;;12.68;2.55;;;10.30;81.00;;;;;;5053987;28;20139;-64
2023/12/20 11:46:06;;;;;;;12.38;3.53;;;10.30;80.90;;;;;;5051078;28;20024;-65
2023/12/20 11:48:34;;;;;;;11.98;2.85;;;10.30;80.90;;;;;;5054506;28;20464;-64
2023/12/20 11:51:00;;;;;;;14.13;3.03;;;10.30;80.90;;;;;;5047808;28;20036;-64
2023/12/20 11:53:26;;;;;;;10.13;2.83;;;10.30;80.90;;;;;;5053799;28;20021;-64
2023/12/20 11:55:53;;;;;;;14.07;3.25;;;10.30;80.90;;;;;;5051542;28;20036;-65
2023/12/20 11:58:19;;;;;;;12.82;2.88;;;10.30;81.00;;;;;;5053324;28;20063;-65
2023/12/20 12:00:44;;;;;;;15.02;3.28;;;10.30;81.00;;;;;;5051368;28;20029;-65
2023/12/20 12:03:14;;;;;;;13.55;3.50;;;10.30;81.00;;;;;;5055298;28;20083;-65
2023/12/20 12:05:40;;;;;;;15.93;3.38;;;10.30;81.00;;;;;;5051649;28;20112;-64
2023/12/20 12:08:06;;;;;;;14.15;3.80;;;10.40;81.00;;;;;;5070390;28;20067;-64
2023/12/20 12:10:32;;;;;;;10.50;3.20;;;10.30;81.00;;;;;;5074821;28;20101;-65
2023/12/20 12:12:57;;;;;;;12.98;3.05;;;10.30;81.00;;;;;;5075599;28;20047;-64
2023/12/20 12:15:23;;;;;;;13.38;3.53;;;10.40;81.20;;;;;;5056187;28;20127;-65
2023/12/20 12:17:56;;;;;;;14.52;3.05;;;10.40;81.20;;;;;;5066477;28;20112;-64
2023/12/20 12:20:22;;;;;;;11.77;2.65;;;10.40;81.20;;;;;;5074470;28;20032;-64
2023/12/20 12:23:02;;;;;;;10.38;2.90;;;10.40;81.10;;;;;;5074431;28;20128;-64
2023/12/20 12:25:32;;;;;;;13.55;2.30;;;10.40;80.90;;;;;;5075408;28;20047;-64
2023/12/20 12:27:59;;;;;;;10.95;2.28;;;10.40;80.70;;;;;;5040896;28;20025;-64
2023/12/20 12:30:25;;;;;;;8.70;2.10;;;10.50;80.60;;;;;;5067318;28;20070;-64
2023/12/20 12:32:51;;;;;;;11.20;2.47;;;10.50;80.30;;;;;;5075523;28;20346;-65
2023/12/20 12:35:18;;;;;;;8.40;2.50;;;10.50;80.20;;;;;;5074904;28;20044;-65
2023/12/20 12:37:44;;;;;;;11.23;2.50;;;10.60;80.10;;;;;;5065696;28;20020;-64
2023/12/20 12:40:14;;;;;;;11.27;2.50;;;10.60;80.00;;;;;;5074514;28;20043;-64
2023/12/20 12:42:41;;;;;;;8.95;1.90;;;10.60;79.90;;;;;;5075317;28;20037;-64
2023/12/20 12:45:08;;;;;;;9.25;2.63;;;10.60;79.90;;;;;;5073848;28;20032;-65